createdAt,value
2019-04-03T00:00:56.739Z,10.92
2019-04-03T00:01:56.744Z,10.86
2019-04-03T00:02:56.708Z,10.88
2019-04-03T00:03:56.700Z,10.89
2019-04-03T00:04:56.746Z,10.89
2019-04-03T00:05:56.695Z,10.92
2019-04-03T00:06:56.742Z,10.96
2019-04-03T00:07:56.694Z,10.92
2019-04-03T00:08:56.646Z,10.94
2019-04-03T00:09:56.649Z,11.00
2019-04-03T00:10:56.625Z,10.96
2019-04-03T00:11:56.622Z,11.04
2019-04-03T00:12:56.605Z,11.00
2019-04-03T00:13:56.587Z,10.96
2019-04-03T00:14:56.589Z,11.03
2019-04-03T00:15:56.568Z,11.09
2019-04-03T00:16:56.558Z,10.97
2019-04-03T00:17:56.647Z,10.99
2019-04-03T00:18:56.534Z,11.04
2019-04-03T00:19:56.521Z,11.06
2019-04-03T00:20:56.506Z,11.00
2019-04-03T00:21:56.496Z,11.07
2019-04-03T00:22:56.502Z,11.09
2019-04-03T00:23:56.484Z,10.92
2019-04-03T00:24:56.474Z,10.99
2019-04-03T00:25:56.453Z,11.06
2019-04-03T00:26:56.441Z,11.02
2019-04-03T00:27:56.498Z,10.94
2019-04-03T00:28:56.453Z,10.88
2019-04-03T00:29:56.410Z,10.96
2019-04-03T00:30:56.477Z,10.92
2019-04-03T00:31:56.383Z,10.96
2019-04-03T00:32:56.391Z,10.94
2019-04-03T00:33:56.365Z,10.94
2019-04-03T00:34:56.357Z,10.97
2019-04-03T00:35:56.346Z,10.96
2019-04-03T00:36:56.430Z,11.00
2019-04-03T00:37:56.334Z,11.00
2019-04-03T00:38:56.308Z,11.03
2019-04-03T00:39:56.351Z,10.99
2019-04-03T00:40:56.292Z,10.99
2019-04-03T00:41:56.276Z,11.00
2019-04-03T00:42:56.332Z,10.97
2019-04-03T00:43:56.250Z,10.97
2019-04-03T00:44:56.235Z,11.00
2019-04-03T00:45:56.231Z,10.92
2019-04-03T00:46:56.234Z,10.92
2019-04-03T00:47:56.226Z,10.99
2019-04-03T00:48:56.312Z,10.82
2019-04-03T00:49:57.061Z,10.85
2019-04-03T00:50:57.316Z,10.88
2019-04-03T00:51:57.613Z,10.82
2019-04-03T00:52:57.437Z,10.73
2019-04-03T00:53:57.969Z,10.84
2019-04-03T00:54:56.625Z,10.76
2019-04-03T00:55:56.493Z,10.81
2019-04-03T00:56:56.489Z,10.76
2019-04-03T00:57:56.846Z,10.81
2019-04-03T00:58:56.080Z,10.82
2019-04-03T00:59:56.423Z,10.74
2019-04-03T01:00:56.334Z,10.64
2019-04-03T01:01:56.506Z,10.71
2019-04-03T01:02:58.157Z,10.78
2019-04-03T01:03:58.115Z,10.74
2019-04-03T01:04:57.997Z,10.73
2019-04-03T01:05:56.698Z,10.74
2019-04-03T01:06:56.800Z,10.74
2019-04-03T01:07:55.987Z,10.73
2019-04-03T01:08:55.985Z,10.78
2019-04-03T01:09:55.965Z,10.74
2019-04-03T01:10:55.957Z,10.74
2019-04-03T01:11:55.930Z,10.79
2019-04-03T01:12:55.962Z,10.74
2019-04-03T01:13:55.943Z,10.76
2019-04-03T01:14:56.039Z,10.78
2019-04-03T01:15:55.937Z,10.71
2019-04-03T01:16:55.879Z,10.73
2019-04-03T01:17:55.865Z,10.76
2019-04-03T01:18:55.869Z,10.71
2019-04-03T01:19:55.845Z,10.71
2019-04-03T01:20:55.828Z,10.74
2019-04-03T01:21:55.822Z,10.70
2019-04-03T01:22:55.807Z,10.74
2019-04-03T01:23:55.854Z,10.78
2019-04-03T01:24:55.788Z,10.73
2019-04-03T01:25:56.100Z,10.71
2019-04-03T01:26:55.769Z,10.68
2019-04-03T01:27:55.760Z,10.68
2019-04-03T01:28:56.049Z,10.73
2019-04-03T01:29:55.727Z,10.76
2019-04-03T01:30:55.716Z,10.73
2019-04-03T01:31:55.788Z,10.66
2019-04-03T01:32:55.707Z,10.64
2019-04-03T01:33:55.710Z,10.76
2019-04-03T01:34:55.758Z,10.76
2019-04-03T01:35:55.660Z,10.78
2019-04-03T01:36:55.669Z,10.79
2019-04-03T01:37:55.642Z,10.73
2019-04-03T01:38:55.771Z,10.67
2019-04-03T01:39:55.618Z,10.73
2019-04-03T01:40:55.609Z,10.71
2019-04-03T01:41:55.623Z,10.67
2019-04-03T01:42:55.586Z,10.67
2019-04-03T01:43:55.673Z,10.61
2019-04-03T01:44:56.084Z,10.59
2019-04-03T01:45:56.945Z,10.55
2019-04-03T01:46:57.311Z,10.61
2019-04-03T01:47:57.354Z,10.48
2019-04-03T01:48:58.026Z,10.51
2019-04-03T01:49:56.806Z,10.51
2019-04-03T01:50:55.505Z,10.41
2019-04-03T01:51:55.488Z,10.44
2019-04-03T01:52:55.481Z,10.42
2019-04-03T01:53:55.470Z,10.40
2019-04-03T01:54:55.511Z,10.33
2019-04-03T01:55:55.450Z,10.29
2019-04-03T01:56:55.426Z,10.33
2019-04-03T01:57:55.413Z,10.36
2019-04-03T01:58:55.401Z,10.26
2019-04-03T01:59:55.409Z,10.18
2019-04-03T02:00:55.378Z,10.20
2019-04-03T02:01:55.372Z,10.12
2019-04-03T02:02:55.360Z,10.12
2019-04-03T02:03:55.352Z,10.02
2019-04-03T02:04:55.495Z,10.05
2019-04-03T02:05:55.327Z,9.99
2019-04-03T02:06:55.406Z,9.97
2019-04-03T02:07:55.307Z,9.96
2019-04-03T02:08:55.286Z,9.91
2019-04-03T02:09:55.495Z,9.91
2019-04-03T02:10:55.264Z,9.78
2019-04-03T02:11:55.252Z,9.90
2019-04-03T02:12:55.259Z,9.78
2019-04-03T02:13:55.231Z,9.78
2019-04-03T02:14:55.235Z,9.78
2019-04-03T02:15:55.217Z,9.72
2019-04-03T02:16:55.197Z,9.74
2019-04-03T02:17:55.320Z,9.68
2019-04-03T02:18:55.723Z,9.75
2019-04-03T02:19:56.379Z,9.64
2019-04-03T02:20:57.244Z,9.69
2019-04-03T02:21:55.144Z,9.64
2019-04-03T02:22:55.145Z,9.56
2019-04-03T02:23:55.119Z,9.58
2019-04-03T02:24:55.128Z,9.56
2019-04-03T02:25:55.093Z,9.60
2019-04-03T02:26:55.085Z,9.57
2019-04-03T02:27:55.072Z,9.56
2019-04-03T02:28:55.224Z,9.58
2019-04-03T02:29:55.070Z,9.61
2019-04-03T02:30:55.075Z,9.58
2019-04-03T02:31:55.027Z,9.56
2019-04-03T02:32:56.664Z,9.54
2019-04-03T02:33:55.010Z,9.57
2019-04-03T02:34:55.011Z,9.58
2019-04-03T02:35:55.467Z,9.51
2019-04-03T02:36:54.974Z,9.54
2019-04-03T02:37:54.964Z,9.54
2019-04-03T02:38:54.949Z,9.53
2019-04-03T02:39:59.115Z,9.58
2019-04-03T02:40:56.048Z,9.56
2019-04-03T02:41:55.042Z,9.50
2019-04-03T02:42:54.925Z,9.50
2019-04-03T02:43:55.152Z,9.43
2019-04-03T02:44:55.105Z,9.46
2019-04-03T02:45:56.408Z,9.43
2019-04-03T02:46:54.864Z,9.46
2019-04-03T02:47:54.861Z,9.46
2019-04-03T02:48:54.898Z,9.42
2019-04-03T02:49:54.836Z,9.42
2019-04-03T02:50:54.842Z,9.35
2019-04-03T02:51:54.806Z,9.35
2019-04-03T02:52:58.012Z,9.38
2019-04-03T02:53:54.792Z,9.36
2019-04-03T02:54:54.771Z,9.33
2019-04-03T02:55:54.778Z,9.35
2019-04-03T02:56:54.751Z,9.23
2019-04-03T02:57:54.736Z,9.31
2019-04-03T02:58:55.177Z,9.29
2019-04-03T02:59:58.267Z,9.15
2019-04-03T03:00:54.740Z,9.13
2019-04-03T03:01:54.912Z,9.18
2019-04-03T03:02:54.968Z,9.17
2019-04-03T03:03:54.668Z,9.17
2019-04-03T03:04:55.627Z,9.17
2019-04-03T03:05:54.680Z,9.17
2019-04-03T03:06:54.909Z,9.14
2019-04-03T03:07:54.620Z,9.11
2019-04-03T03:08:54.608Z,9.08
2019-04-03T03:09:54.846Z,9.11
2019-04-03T03:10:54.612Z,9.05
2019-04-03T03:11:56.108Z,9.02
2019-04-03T03:12:54.566Z,8.98
2019-04-03T03:13:54.565Z,9.01
2019-04-03T03:14:54.555Z,8.98
2019-04-03T03:15:54.583Z,8.99
2019-04-03T03:16:54.518Z,8.99
2019-04-03T03:17:55.892Z,8.96
2019-04-03T03:18:54.496Z,8.96
2019-04-03T03:19:54.774Z,8.94
2019-04-03T03:20:54.497Z,8.99
2019-04-03T03:21:54.473Z,8.96
2019-04-03T03:22:54.517Z,8.95
2019-04-03T03:23:56.204Z,8.96
2019-04-03T03:24:54.428Z,8.96
2019-04-03T03:25:54.594Z,8.98
2019-04-03T03:26:54.410Z,8.95
2019-04-03T03:27:54.405Z,8.98
2019-04-03T03:28:54.381Z,8.94
2019-04-03T03:29:54.478Z,9.01
2019-04-03T03:30:59.844Z,8.99
2019-04-03T03:32:07.913Z,8.98
2019-04-03T03:33:22.291Z,8.95
2019-04-03T03:34:00.518Z,8.92
2019-04-03T03:35:07.624Z,9.02
2019-04-03T03:35:55.952Z,8.96
2019-04-03T03:36:58.697Z,8.95
2019-04-03T03:37:55.378Z,8.92
2019-04-03T03:38:54.278Z,8.95
2019-04-03T03:39:54.426Z,8.95
2019-04-03T03:40:54.417Z,9.01
2019-04-03T03:41:57.509Z,8.94
2019-04-03T03:42:54.232Z,8.99
2019-04-03T03:43:54.359Z,8.99
2019-04-03T03:44:54.306Z,8.95
2019-04-03T03:45:54.202Z,8.94
2019-04-03T03:46:54.203Z,8.94
2019-04-03T03:47:54.605Z,8.95
2019-04-03T03:48:54.159Z,9.01
2019-04-03T03:49:54.266Z,8.89
2019-04-03T03:50:57.275Z,8.87
2019-04-03T03:51:54.146Z,8.91
2019-04-03T03:52:54.115Z,8.91
2019-04-03T03:53:54.130Z,8.86
2019-04-03T03:54:54.087Z,8.87
2019-04-03T03:55:57.506Z,8.86
2019-04-03T03:56:54.090Z,8.86
2019-04-03T03:57:54.060Z,8.81
2019-04-03T03:58:54.092Z,8.83
2019-04-03T03:59:54.053Z,8.83
2019-04-03T04:00:57.898Z,8.80
2019-04-03T04:01:55.132Z,8.83
2019-04-03T04:02:54.117Z,8.84
2019-04-03T04:03:53.982Z,8.79
2019-04-03T04:04:53.973Z,8.79
2019-04-03T04:05:56.023Z,8.81
2019-04-03T04:06:54.039Z,8.80
2019-04-03T04:07:53.944Z,8.77
2019-04-03T04:08:53.946Z,8.74
2019-04-03T04:09:54.135Z,8.81
2019-04-03T04:10:58.097Z,8.81
2019-04-03T04:11:54.921Z,8.74
2019-04-03T04:12:53.897Z,8.70
2019-04-03T04:13:53.891Z,8.86
2019-04-03T04:14:56.434Z,8.80
2019-04-03T04:15:54.151Z,8.79
2019-04-03T04:16:53.860Z,8.77
2019-04-03T04:17:53.850Z,8.73
2019-04-03T04:18:57.269Z,8.76
2019-04-03T04:19:54.177Z,8.71
2019-04-03T04:20:53.843Z,8.76
2019-04-03T04:21:54.023Z,8.73
2019-04-03T04:22:54.079Z,8.73
2019-04-03T04:23:55.958Z,8.73
2019-04-03T04:24:53.749Z,8.80
2019-04-03T04:25:53.739Z,8.74
2019-04-03T04:26:53.747Z,8.77
2019-04-03T04:27:53.719Z,8.80
2019-04-03T04:28:53.704Z,8.73
2019-04-03T04:29:53.693Z,8.74
2019-04-03T04:30:53.679Z,8.80
2019-04-03T04:31:53.690Z,8.80
2019-04-03T04:32:53.658Z,8.80
2019-04-03T04:33:53.655Z,8.87
2019-04-03T04:34:53.640Z,8.94
2019-04-03T04:35:53.629Z,8.91
2019-04-03T04:36:55.334Z,8.91
2019-04-03T04:37:55.298Z,8.91
2019-04-03T04:38:53.615Z,8.80
2019-04-03T04:39:53.582Z,8.83
2019-04-03T04:40:53.784Z,8.86
2019-04-03T04:41:53.658Z,8.84
2019-04-03T04:42:53.579Z,8.92
2019-04-03T04:43:53.533Z,8.89
2019-04-03T04:44:53.566Z,8.95
2019-04-03T04:45:53.514Z,8.92
2019-04-03T04:46:53.510Z,8.95
2019-04-03T04:47:53.515Z,8.95
2019-04-03T04:48:53.528Z,9.05
2019-04-03T04:49:54.210Z,9.04
2019-04-03T04:50:55.161Z,9.10
2019-04-03T04:51:56.531Z,9.08
2019-04-03T04:52:53.520Z,9.08
2019-04-03T04:53:53.444Z,8.99
2019-04-03T04:54:53.409Z,9.10
2019-04-03T04:55:53.403Z,9.04
2019-04-03T04:56:53.386Z,8.98
2019-04-03T04:57:53.394Z,8.98
2019-04-03T04:58:53.575Z,8.99
2019-04-03T04:59:53.353Z,8.96
2019-04-03T05:00:53.873Z,8.94
2019-04-03T05:01:53.335Z,8.94
2019-04-03T05:02:53.376Z,8.92
2019-04-03T05:03:53.932Z,8.99
2019-04-03T05:04:55.296Z,8.92
2019-04-03T05:05:53.526Z,8.89
2019-04-03T05:06:53.279Z,8.86
2019-04-03T05:07:53.760Z,8.94
2019-04-03T05:08:53.254Z,8.89
2019-04-03T05:09:53.242Z,8.91
2019-04-03T05:10:53.224Z,8.92
2019-04-03T05:11:53.219Z,8.89
2019-04-03T05:12:53.238Z,8.87
2019-04-03T05:13:53.416Z,8.83
2019-04-03T05:14:53.306Z,8.87
2019-04-03T05:15:54.097Z,8.83
2019-04-03T05:16:54.115Z,8.91
2019-04-03T05:17:53.171Z,8.83
2019-04-03T05:18:53.142Z,8.87
2019-04-03T05:19:53.128Z,8.84
2019-04-03T05:20:53.118Z,8.84
2019-04-03T05:21:53.502Z,8.94
2019-04-03T05:22:55.415Z,8.92
2019-04-03T05:23:55.748Z,8.95
2019-04-03T05:24:53.074Z,8.94
2019-04-03T05:25:53.236Z,8.94
2019-04-03T05:26:53.067Z,9.02
2019-04-03T05:27:53.040Z,9.04
2019-04-03T05:28:57.088Z,9.02
2019-04-03T05:29:53.026Z,9.08
2019-04-03T05:30:53.006Z,9.05
2019-04-03T05:31:52.994Z,9.01
2019-04-03T05:32:52.983Z,9.08
2019-04-03T05:33:53.182Z,9.11
2019-04-03T05:34:52.961Z,9.17
2019-04-03T05:35:52.959Z,9.15
2019-04-03T05:36:52.930Z,9.17
2019-04-03T05:37:52.925Z,9.18
2019-04-03T05:38:53.913Z,9.17
2019-04-03T05:39:54.670Z,9.26
2019-04-03T05:40:52.899Z,9.29
2019-04-03T05:41:52.883Z,9.32
2019-04-03T05:42:52.874Z,9.33
2019-04-03T05:43:52.874Z,9.35
2019-04-03T05:44:52.866Z,9.21
2019-04-03T05:45:52.832Z,9.39
2019-04-03T05:46:52.822Z,9.39
2019-04-03T05:47:52.816Z,9.35
2019-04-03T05:48:52.828Z,9.36
2019-04-03T05:49:55.588Z,9.35
2019-04-03T05:50:52.781Z,9.36
2019-04-03T05:51:52.766Z,9.35
2019-04-03T05:52:52.754Z,9.35
2019-04-03T05:53:54.167Z,9.42
2019-04-03T05:54:52.960Z,9.36
2019-04-03T05:55:52.942Z,9.43
2019-04-03T05:56:52.705Z,9.48
2019-04-03T05:57:52.902Z,9.48
2019-04-03T05:58:56.694Z,9.46
2019-04-03T05:59:59.936Z,9.46
2019-04-03T06:01:04.405Z,9.58
2019-04-03T06:01:53.662Z,9.56
2019-04-03T06:02:53.661Z,9.60
2019-04-03T06:03:52.681Z,9.60
2019-04-03T06:04:52.945Z,9.60
2019-04-03T06:05:52.613Z,9.60
2019-04-03T06:06:52.601Z,9.56
2019-04-03T06:07:52.704Z,9.54
2019-04-03T06:08:52.991Z,9.56
2019-04-03T06:09:53.862Z,9.68
2019-04-03T06:10:52.556Z,9.65
2019-04-03T06:11:52.866Z,9.65
2019-04-03T06:12:52.657Z,9.65
2019-04-03T06:13:52.798Z,9.75
2019-04-03T06:14:52.507Z,9.65
2019-04-03T06:15:52.986Z,9.71
2019-04-03T06:16:55.513Z,9.74
2019-04-03T06:17:55.105Z,9.78
2019-04-03T06:18:52.500Z,9.72
2019-04-03T06:19:52.456Z,9.81
2019-04-03T06:20:52.439Z,9.78
2019-04-03T06:21:52.426Z,9.90
2019-04-03T06:22:52.445Z,9.90
2019-04-03T06:23:53.018Z,10.04
2019-04-03T06:24:52.407Z,9.99
2019-04-03T06:25:52.382Z,9.94
2019-04-03T06:26:52.379Z,10.04
2019-04-03T06:27:52.623Z,10.11
2019-04-03T06:28:52.370Z,10.08
2019-04-03T06:29:55.085Z,10.18
2019-04-03T06:30:52.326Z,10.14
2019-04-03T06:31:52.320Z,10.23
2019-04-03T06:32:54.743Z,10.27
2019-04-03T06:33:52.311Z,10.30
2019-04-03T06:34:52.280Z,10.32
2019-04-03T06:35:52.275Z,10.36
2019-04-03T06:36:52.480Z,10.29
2019-04-03T06:37:53.145Z,10.41
2019-04-03T06:38:52.253Z,10.44
2019-04-03T06:39:52.236Z,10.47
2019-04-03T06:40:52.220Z,10.48
2019-04-03T06:41:52.351Z,10.45
2019-04-03T06:42:52.204Z,10.48
2019-04-03T06:43:54.045Z,10.41
2019-04-03T06:44:53.612Z,10.51
2019-04-03T06:45:52.173Z,10.48
2019-04-03T06:46:54.062Z,10.52
2019-04-03T06:47:52.301Z,10.67
2019-04-03T06:48:55.061Z,10.63
2019-04-03T06:49:52.112Z,10.63
2019-04-03T06:50:52.106Z,10.66
2019-04-03T06:51:52.093Z,10.68
2019-04-03T06:52:53.049Z,10.71
2019-04-03T06:53:52.102Z,10.76
2019-04-03T06:54:52.062Z,10.78
2019-04-03T06:55:52.217Z,10.82
2019-04-03T06:56:53.003Z,10.88
2019-04-03T06:57:52.026Z,10.99
2019-04-03T06:58:52.024Z,10.99
2019-04-03T06:59:52.187Z,11.04
2019-04-03T07:00:54.373Z,11.09
2019-04-03T07:01:52.837Z,11.19
2019-04-03T07:02:52.042Z,11.21
2019-04-03T07:03:51.959Z,11.28
2019-04-03T07:04:51.979Z,11.35
2019-04-03T07:05:52.134Z,11.33
2019-04-03T07:06:52.353Z,11.44
2019-04-03T07:07:51.927Z,11.51
2019-04-03T07:08:51.895Z,11.47
2019-04-03T07:09:51.910Z,11.55
2019-04-03T07:10:55.366Z,11.62
2019-04-03T07:11:51.863Z,11.69
2019-04-03T07:12:51.850Z,11.79
2019-04-03T07:13:53.853Z,11.78
2019-04-03T07:14:51.935Z,11.94
2019-04-03T07:15:51.824Z,12.02
2019-04-03T07:16:51.812Z,12.07
2019-04-03T07:17:51.805Z,12.27
2019-04-03T07:18:51.790Z,12.28
2019-04-03T07:19:51.794Z,12.24
2019-04-03T07:20:52.566Z,12.28
2019-04-03T07:21:53.020Z,12.53
2019-04-03T07:22:51.955Z,12.47
2019-04-03T07:23:51.726Z,12.56
2019-04-03T07:24:51.740Z,12.70
2019-04-03T07:25:51.708Z,12.77
2019-04-03T07:26:51.695Z,12.83
2019-04-03T07:27:51.797Z,12.85
2019-04-03T07:28:51.684Z,12.85
2019-04-03T07:29:51.789Z,12.82
2019-04-03T07:30:53.569Z,12.90
2019-04-03T07:31:52.784Z,13.05
2019-04-03T07:32:51.634Z,13.11
2019-04-03T07:33:51.812Z,13.11
2019-04-03T07:34:51.625Z,13.20
2019-04-03T07:35:51.596Z,13.33
2019-04-03T07:36:51.820Z,13.42
2019-04-03T07:37:52.072Z,13.42
2019-04-03T07:38:51.568Z,13.51
2019-04-03T07:39:51.574Z,13.49
2019-04-03T07:40:52.428Z,13.51
2019-04-03T07:41:53.318Z,13.55
2019-04-03T07:42:51.536Z,13.52
2019-04-03T07:43:51.512Z,13.62
2019-04-03T07:44:51.522Z,13.70
2019-04-03T07:45:51.477Z,13.78
2019-04-03T07:46:51.514Z,13.89
2019-04-03T07:47:51.463Z,13.99
2019-04-03T07:48:51.463Z,14.03
2019-04-03T07:49:51.472Z,14.02
2019-04-03T07:50:51.443Z,14.20
2019-04-03T07:51:51.406Z,14.10
2019-04-03T07:52:51.398Z,14.25
2019-04-03T07:53:51.680Z,14.22
2019-04-03T07:54:52.898Z,14.35
2019-04-03T07:55:51.615Z,14.36
2019-04-03T07:56:51.350Z,14.43
2019-04-03T07:57:51.745Z,14.52
2019-04-03T07:58:51.330Z,14.58
2019-04-03T07:59:51.321Z,14.54
2019-04-03T08:00:51.330Z,14.64
2019-04-03T08:01:51.332Z,14.62
2019-04-03T08:02:51.290Z,14.62
2019-04-03T08:03:52.088Z,14.64
2019-04-03T08:04:51.559Z,14.80
2019-04-03T08:05:51.276Z,14.80
2019-04-03T08:06:51.240Z,14.77
2019-04-03T08:07:51.245Z,14.78
2019-04-03T08:09:05.848Z,14.88
2019-04-03T08:09:52.222Z,14.89
2019-04-03T08:10:51.541Z,14.75
2019-04-03T08:11:51.303Z,14.84
2019-04-03T08:12:51.181Z,14.86
2019-04-03T08:13:51.250Z,14.88
2019-04-03T08:14:51.157Z,14.88
2019-04-03T08:15:51.172Z,14.78
2019-04-03T08:16:51.128Z,14.94
2019-04-03T08:17:51.516Z,14.95
2019-04-03T08:18:51.794Z,14.92
2019-04-03T08:19:53.730Z,14.91
2019-04-03T08:20:51.115Z,15.02
2019-04-03T08:21:51.379Z,15.06
2019-04-03T08:22:51.060Z,15.03
2019-04-03T08:23:51.060Z,15.09
2019-04-03T08:24:53.071Z,15.13
2019-04-03T08:25:54.055Z,15.14
2019-04-03T08:26:52.138Z,15.11
2019-04-03T08:27:51.014Z,15.28
2019-04-03T08:28:50.992Z,15.13
2019-04-03T08:29:51.003Z,15.11
2019-04-03T08:30:51.200Z,15.07
2019-04-03T08:31:50.980Z,15.09
2019-04-03T08:32:50.950Z,15.13
2019-04-03T08:33:50.952Z,15.09
2019-04-03T08:34:51.050Z,15.21
2019-04-03T08:35:50.936Z,15.25
2019-04-03T08:36:50.932Z,15.21
2019-04-03T08:37:51.006Z,15.19
2019-04-03T08:38:50.937Z,15.21
2019-04-03T08:39:51.062Z,15.17
2019-04-03T08:40:52.399Z,15.25
2019-04-03T08:41:51.140Z,15.29
2019-04-03T08:42:50.830Z,15.32
2019-04-03T08:43:50.829Z,15.32
2019-04-03T08:44:50.818Z,15.34
2019-04-03T08:45:50.819Z,15.46
2019-04-03T08:46:50.965Z,15.44
2019-04-03T08:47:50.779Z,15.53
2019-04-03T08:48:50.773Z,15.43
2019-04-03T08:49:50.748Z,15.51
2019-04-03T08:50:50.786Z,15.50
2019-04-03T08:51:50.761Z,15.53
2019-04-03T08:52:50.738Z,15.57
2019-04-03T08:53:53.719Z,15.65
2019-04-03T08:54:50.714Z,15.78
2019-04-03T08:55:50.720Z,15.75
2019-04-03T08:56:50.824Z,15.82
2019-04-03T08:57:52.526Z,15.84
2019-04-03T08:58:50.674Z,15.78
2019-04-03T08:59:50.650Z,15.78
2019-04-03T09:00:50.799Z,15.84
2019-04-03T09:01:50.745Z,15.94
2019-04-03T09:02:50.608Z,15.89
2019-04-03T09:03:50.885Z,15.86
2019-04-03T09:04:50.755Z,15.92
2019-04-03T09:05:51.573Z,15.96
2019-04-03T09:06:51.734Z,15.93
2019-04-03T09:07:50.795Z,15.96
2019-04-03T09:08:50.546Z,16.04
2019-04-03T09:09:50.944Z,16.05
2019-04-03T09:10:50.513Z,16.07
2019-04-03T09:11:50.522Z,16.17
2019-04-03T09:12:50.497Z,16.21
2019-04-03T09:13:50.525Z,16.27
2019-04-03T09:14:50.479Z,16.33
2019-04-03T09:15:50.458Z,16.41
2019-04-03T09:16:50.463Z,16.46
2019-04-03T09:17:50.435Z,16.61
2019-04-03T09:18:50.425Z,16.49
2019-04-03T09:19:50.416Z,16.45
2019-04-03T09:20:50.411Z,16.43
2019-04-03T09:21:51.280Z,16.50
2019-04-03T09:22:53.049Z,16.52
2019-04-03T09:23:50.364Z,16.45
2019-04-03T09:24:50.368Z,16.48
2019-04-03T09:25:50.500Z,16.31
2019-04-03T09:26:50.356Z,16.41
2019-04-03T09:27:50.324Z,16.43
2019-04-03T09:28:50.340Z,16.41
2019-04-03T09:29:50.706Z,16.43
2019-04-03T09:30:50.290Z,16.41
2019-04-03T09:31:51.422Z,16.46
2019-04-03T09:32:53.383Z,16.56
2019-04-03T09:33:50.252Z,16.58
2019-04-03T09:34:50.393Z,16.70
2019-04-03T09:35:50.238Z,16.70
2019-04-03T09:36:50.251Z,16.82
2019-04-03T09:37:50.222Z,16.82
2019-04-03T09:38:50.499Z,16.73
2019-04-03T09:39:50.182Z,16.81
2019-04-03T09:40:50.481Z,16.91
2019-04-03T09:41:50.983Z,16.93
2019-04-03T09:42:51.582Z,17.01
2019-04-03T09:43:50.149Z,16.97
2019-04-03T09:44:50.137Z,16.97
2019-04-03T09:45:50.192Z,17.04
2019-04-03T09:46:50.140Z,17.18
2019-04-03T09:47:50.103Z,17.22
2019-04-03T09:48:50.098Z,17.16
2019-04-03T09:49:50.092Z,17.28
2019-04-03T09:50:50.063Z,17.33
2019-04-03T09:51:52.548Z,17.46
2019-04-03T09:52:50.757Z,17.43
2019-04-03T09:53:50.370Z,17.54
2019-04-03T09:54:50.024Z,17.55
2019-04-03T09:55:50.002Z,17.49
2019-04-03T09:56:59.338Z,17.51
2019-04-03T09:57:52.814Z,17.54
2019-04-03T09:58:49.971Z,17.66
2019-04-03T09:59:49.967Z,17.79
2019-04-03T10:00:49.959Z,18.15
2019-04-03T10:01:50.226Z,18.60
2019-04-03T10:02:51.511Z,18.67
2019-04-03T10:03:49.920Z,18.88
2019-04-03T10:04:49.976Z,19.16
2019-04-03T10:05:49.897Z,19.29
2019-04-03T10:06:49.907Z,19.51
2019-04-03T10:07:49.867Z,19.83
2019-04-03T10:08:49.858Z,20.20
2019-04-03T10:09:49.854Z,20.21
2019-04-03T10:10:50.067Z,20.47
2019-04-03T10:11:51.058Z,20.50
2019-04-03T10:12:49.822Z,20.58
2019-04-03T10:13:49.877Z,20.70
2019-04-03T10:14:49.790Z,20.84
2019-04-03T10:15:49.878Z,21.12
2019-04-03T10:16:49.819Z,21.35
2019-04-03T10:17:49.789Z,21.74
2019-04-03T10:18:49.752Z,21.83
2019-04-03T10:19:49.838Z,22.06
2019-04-03T10:20:49.799Z,22.03
2019-04-03T10:21:51.843Z,21.96
2019-04-03T10:22:49.706Z,22.06
2019-04-03T10:23:49.874Z,22.22
2019-04-03T10:24:49.830Z,22.49
2019-04-03T10:25:52.521Z,22.68
2019-04-03T10:26:49.678Z,23.02
2019-04-03T10:27:49.889Z,23.22
2019-04-03T10:28:49.641Z,23.31
2019-04-03T10:29:50.657Z,23.31
2019-04-03T10:30:51.970Z,23.23
2019-04-03T10:31:49.628Z,23.39
2019-04-03T10:32:49.600Z,23.54
2019-04-03T10:33:49.713Z,23.95
2019-04-03T10:34:49.568Z,23.95
2019-04-03T10:35:49.564Z,24.45
2019-04-03T10:36:49.565Z,24.99
2019-04-03T10:37:49.782Z,25.50
2019-04-03T10:38:49.600Z,25.83
2019-04-03T10:39:51.765Z,25.97
2019-04-03T10:40:49.747Z,26.43
2019-04-03T10:41:49.505Z,26.72
2019-04-03T10:42:49.476Z,26.85
2019-04-03T10:43:49.465Z,26.66
2019-04-03T10:44:49.462Z,26.92
2019-04-03T10:45:49.465Z,27.13
2019-04-03T10:46:49.923Z,27.13
2019-04-03T10:47:49.425Z,27.13
2019-04-03T10:48:49.503Z,27.14
2019-04-03T10:49:49.411Z,27.21
2019-04-03T10:50:49.398Z,27.37
2019-04-03T10:51:49.654Z,27.66
2019-04-03T10:52:49.430Z,27.81
2019-04-03T10:53:51.641Z,27.92
2019-04-03T10:54:49.354Z,27.88
2019-04-03T10:55:49.341Z,27.77
2019-04-03T10:56:49.356Z,27.40
2019-04-03T10:57:49.419Z,27.22
2019-04-03T10:58:50.405Z,27.04
2019-04-03T10:59:53.194Z,27.12
2019-04-03T11:00:50.300Z,27.27
2019-04-03T11:01:49.302Z,27.51
2019-04-03T11:02:49.272Z,27.81
2019-04-03T11:03:49.273Z,27.90
2019-04-03T11:04:49.249Z,28.00
2019-04-03T11:05:49.645Z,27.94
2019-04-03T11:06:49.303Z,28.06
2019-04-03T11:07:49.219Z,28.22
2019-04-03T11:08:49.216Z,28.33
2019-04-03T11:09:49.192Z,28.74
2019-04-03T11:10:49.187Z,28.98
2019-04-03T11:11:49.189Z,29.18
2019-04-03T11:12:49.167Z,29.36
2019-04-03T11:13:49.152Z,29.30
2019-04-03T11:14:49.437Z,29.43
2019-04-03T11:15:49.130Z,29.60
2019-04-03T11:16:49.139Z,29.60
2019-04-03T11:17:49.988Z,29.71
2019-04-03T11:18:58.562Z,29.57
2019-04-03T11:19:50.100Z,29.26
2019-04-03T11:20:49.091Z,29.19
2019-04-03T11:21:49.104Z,28.89
2019-04-03T11:22:49.200Z,28.86
2019-04-03T11:23:49.227Z,28.92
2019-04-03T11:24:49.069Z,29.09
2019-04-03T11:25:49.151Z,29.12
2019-04-03T11:26:50.829Z,29.24
2019-04-03T11:27:49.062Z,29.24
2019-04-03T11:28:49.198Z,29.46
2019-04-03T11:29:49.024Z,29.86
2019-04-03T11:30:49.618Z,30.17
2019-04-03T11:31:49.027Z,30.38
2019-04-03T11:32:48.975Z,30.55
2019-04-03T11:33:51.293Z,30.57
2019-04-03T11:34:49.963Z,30.55
2019-04-03T11:35:48.980Z,30.51
2019-04-03T11:36:48.914Z,30.57
2019-04-03T11:37:48.928Z,30.79
2019-04-03T11:38:48.904Z,31.07
2019-04-03T11:40:01.039Z,31.51
2019-04-03T11:40:50.796Z,32.03
2019-04-03T11:41:48.886Z,32.23
2019-04-03T11:42:48.874Z,32.13
2019-04-03T11:43:48.855Z,32.10
2019-04-03T11:44:49.199Z,31.92
2019-04-03T11:45:48.840Z,31.89
2019-04-03T11:46:48.981Z,31.88
2019-04-03T11:47:48.836Z,31.91
2019-04-03T11:48:49.265Z,32.13
2019-04-03T11:49:51.421Z,32.25
2019-04-03T11:50:48.940Z,32.59
2019-04-03T11:51:48.775Z,32.87
2019-04-03T11:52:51.252Z,33.19
2019-04-03T11:53:49.049Z,33.65
2019-04-03T11:54:48.747Z,34.09
2019-04-03T11:55:48.862Z,34.50
2019-04-03T11:56:49.042Z,34.81
2019-04-03T11:57:49.591Z,35.15
2019-04-03T11:58:49.950Z,35.58
2019-04-03T11:59:49.051Z,35.70
2019-04-03T12:00:48.679Z,35.80
2019-04-03T12:01:48.680Z,35.65
2019-04-03T12:02:48.659Z,35.53
2019-04-03T12:03:50.725Z,35.56
2019-04-03T12:04:48.701Z,35.62
2019-04-03T12:05:48.640Z,35.77
2019-04-03T12:06:49.795Z,35.75
2019-04-03T12:07:48.620Z,35.72
2019-04-03T12:08:48.627Z,35.50
2019-04-03T12:09:48.604Z,35.68
2019-04-03T12:10:48.582Z,35.53
2019-04-03T12:11:48.583Z,35.47
2019-04-03T12:12:48.571Z,35.38
2019-04-03T12:13:48.592Z,35.52
2019-04-03T12:14:49.623Z,35.68
2019-04-03T12:15:52.490Z,35.87
2019-04-03T12:16:48.536Z,36.07
2019-04-03T12:17:48.773Z,36.05
2019-04-03T12:18:48.516Z,36.13
2019-04-03T12:19:48.797Z,36.29
2019-04-03T12:20:49.862Z,36.28
2019-04-03T12:21:50.389Z,36.07
2019-04-03T12:22:48.699Z,35.53
2019-04-03T12:23:48.588Z,35.22
2019-04-03T12:24:48.581Z,34.84
2019-04-03T12:25:48.458Z,34.42
2019-04-03T12:26:50.473Z,34.12
2019-04-03T12:27:49.314Z,34.15
2019-04-03T12:28:50.021Z,34.08
2019-04-03T12:29:48.875Z,34.08
2019-04-03T12:30:48.416Z,33.72
2019-04-03T12:31:48.393Z,33.16
2019-04-03T12:32:50.172Z,32.50
2019-04-03T12:33:54.927Z,31.69
2019-04-03T12:34:49.680Z,31.28
2019-04-03T12:35:48.418Z,30.73
2019-04-03T12:36:48.335Z,30.29
2019-04-03T12:37:50.143Z,29.89
2019-04-03T12:38:48.321Z,29.61
2019-04-03T12:39:48.375Z,29.39
2019-04-03T12:40:48.312Z,28.92
2019-04-03T12:41:48.298Z,28.37
2019-04-03T12:42:48.277Z,28.06
2019-04-03T12:43:49.960Z,27.85
2019-04-03T12:44:48.785Z,27.85
2019-04-03T12:45:48.257Z,27.75
2019-04-03T12:46:48.244Z,27.87
2019-04-03T12:47:48.239Z,27.90
2019-04-03T12:48:50.860Z,27.94
2019-04-03T12:49:48.229Z,27.82
2019-04-03T12:50:48.215Z,27.74
2019-04-03T12:51:48.183Z,27.81
2019-04-03T12:52:48.448Z,27.72
2019-04-03T12:53:48.469Z,27.62
2019-04-03T12:54:48.772Z,27.69
2019-04-03T12:55:48.171Z,27.63
2019-04-03T12:56:48.189Z,27.59
2019-04-03T12:57:48.311Z,27.55
2019-04-03T12:58:48.124Z,27.55
2019-04-03T12:59:48.244Z,27.50
2019-04-03T13:00:48.128Z,27.70
2019-04-03T13:01:49.214Z,27.74